createdAt,value
2022-12-14T00:08:41.918Z,75.96
2022-12-14T00:18:51.235Z,75.97
2022-12-14T00:28:57.421Z,76.23
2022-12-14T00:39:01.155Z,76.25
2022-12-14T00:49:04.886Z,76.32
2022-12-14T00:59:09.034Z,76.47
2022-12-14T01:09:13.381Z,76.23
2022-12-14T01:19:19.504Z,75.97
2022-12-14T01:29:23.089Z,75.54
2022-12-14T01:39:26.741Z,75.45
2022-12-14T01:49:40.666Z,75.37
2022-12-14T01:59:48.437Z,75.18
2022-12-14T02:09:56.612Z,75.15
2022-12-14T02:20:04.806Z,75.14
2022-12-14T02:30:26.884Z,75.06
2022-12-14T02:40:41.910Z,74.99
2022-12-14T02:50:56.253Z,75.04
2022-12-14T03:01:00.892Z,74.84
2022-12-14T03:11:07.252Z,74.90
2022-12-14T03:21:15.917Z,74.67
2022-12-14T03:31:25.878Z,74.64
2022-12-14T03:41:48.906Z,74.67
2022-12-14T03:52:13.474Z,74.61
2022-12-14T04:02:36.319Z,74.48
2022-12-14T04:13:03.101Z,74.61
2022-12-14T04:23:51.807Z,74.45
2022-12-14T04:33:59.871Z,74.64
2022-12-14T04:44:08.487Z,74.57
2022-12-14T04:54:27.707Z,74.76
2022-12-14T05:04:55.501Z,74.86
2022-12-14T05:15:06.238Z,74.90
2022-12-14T05:25:09.922Z,74.71
2022-12-14T05:35:14.595Z,74.53
2022-12-14T05:45:18.147Z,74.47
2022-12-14T05:55:22.824Z,74.53
2022-12-14T06:05:26.538Z,74.19
2022-12-14T06:15:33.958Z,73.97
2022-12-14T06:25:37.846Z,73.81
2022-12-14T06:35:46.357Z,73.61
2022-12-14T06:45:55.338Z,73.82
2022-12-14T06:56:13.879Z,73.83
2022-12-14T07:06:19.323Z,73.30
2022-12-14T07:16:25.358Z,72.90
2022-12-14T07:26:30.483Z,72.45
2022-12-14T07:36:34.052Z,71.92
2022-12-14T07:46:38.251Z,71.87
2022-12-14T07:56:43.525Z,71.99
2022-12-14T08:06:48.777Z,72.21
2022-12-14T08:16:54.385Z,71.90
2022-12-14T08:26:59.883Z,71.71
2022-12-14T08:37:03.588Z,71.70
2022-12-14T08:47:07.198Z,71.49
2022-12-14T08:57:10.832Z,71.21
2022-12-14T09:07:14.504Z,70.84
2022-12-14T09:17:19.204Z,70.59
2022-12-14T09:27:24.435Z,70.44
2022-12-14T09:37:29.450Z,70.12
2022-12-14T09:47:38.452Z,69.80
2022-12-14T09:57:44.217Z,69.42
2022-12-14T10:08:03.123Z,69.32
2022-12-14T10:18:06.658Z,68.93
2022-12-14T10:28:21.725Z,68.57
2022-12-14T10:38:35.896Z,68.08
2022-12-14T10:49:19.751Z,68.22
2022-12-14T10:59:26.663Z,67.94
2022-12-14T11:09:32.061Z,67.62
2022-12-14T11:20:25.677Z,67.13
2022-12-14T11:30:29.856Z,66.90
2022-12-14T11:40:37.984Z,66.63
2022-12-14T11:50:43.489Z,66.62
2022-12-14T12:00:58.789Z,66.78
2022-12-14T12:11:05.976Z,66.29
2022-12-14T12:21:12.644Z,66.08
2022-12-14T12:31:26.553Z,65.72
2022-12-14T12:41:39.383Z,65.55
2022-12-14T12:51:49.009Z,65.49
2022-12-14T13:01:58.786Z,65.24
2022-12-14T13:12:08.386Z,65.56
2022-12-14T13:22:15.734Z,65.69
2022-12-14T13:32:21.165Z,65.79
2022-12-14T13:42:40.532Z,66.23
2022-12-14T13:52:48.171Z,66.83
2022-12-14T14:02:54.092Z,67.63
2022-12-14T14:12:58.838Z,68.21
2022-12-14T14:23:14.831Z,68.89
2022-12-14T14:33:49.237Z,69.73
2022-12-14T14:44:01.615Z,70.07
2022-12-14T15:04:56.880Z,70.56
2022-12-14T15:15:06.397Z,70.70
2022-12-14T15:25:21.222Z,70.66
2022-12-14T15:35:29.740Z,70.84
2022-12-14T15:45:42.403Z,71.15
2022-12-14T15:55:59.870Z,71.25
2022-12-14T16:06:06.498Z,71.21
2022-12-14T16:16:13.847Z,71.37
2022-12-14T16:26:34.889Z,71.63
2022-12-14T16:36:39.138Z,71.65
2022-12-14T16:46:56.580Z,71.88
2022-12-14T16:57:07.100Z,72.15
2022-12-14T17:07:15.024Z,72.25
2022-12-14T17:17:25.523Z,72.35
2022-12-14T17:27:30.144Z,72.27
2022-12-14T17:37:40.822Z,72.24
2022-12-14T17:47:50.882Z,72.16
2022-12-14T17:58:01.954Z,72.03
2022-12-14T18:08:24.660Z,72.15
2022-12-14T18:18:44.284Z,72.06
2022-12-14T18:29:09.136Z,71.79
2022-12-14T18:39:13.392Z,71.75
2022-12-14T18:49:17.273Z,71.81
2022-12-14T18:59:21.051Z,71.84
2022-12-14T19:09:25.123Z,71.66
2022-12-14T19:19:35.620Z,71.59
2022-12-14T19:29:41.924Z,71.86
2022-12-14T19:39:45.814Z,71.76
2022-12-14T19:49:50.002Z,71.65
2022-12-14T19:59:54.473Z,71.58
2022-12-14T20:09:58.462Z,71.73
2022-12-14T20:20:06.186Z,71.70
2022-12-14T20:30:12.222Z,71.74
2022-12-14T20:40:16.208Z,71.61
2022-12-14T20:50:20.589Z,71.71
2022-12-14T21:00:25.051Z,71.88
2022-12-14T21:10:28.822Z,71.81
2022-12-14T21:20:32.441Z,71.71
2022-12-14T21:30:38.681Z,71.69
2022-12-14T21:41:12.369Z,71.58
2022-12-14T21:51:18.812Z,71.97
2022-12-14T22:01:22.631Z,72.13
2022-12-14T22:11:28.131Z,72.32
2022-12-14T22:21:31.689Z,72.02
2022-12-14T22:31:36.948Z,71.56
2022-12-14T22:41:40.821Z,71.21
2022-12-14T22:51:45.648Z,70.71
2022-12-14T23:01:50.060Z,70.58
2022-12-14T23:12:13.462Z,70.74
2022-12-14T23:22:36.854Z,70.82
2022-12-14T23:33:00.638Z,71.31
2022-12-14T23:43:33.641Z,71.55
2022-12-14T23:53:57.734Z,71.59
